Time;durP1;ratioP1;P1;durP2;ratioP2;P2;SDS_P1;SDS_P2;PMS_P1;PMS_P2;Temp;Humidity;BMP_temperature;BMP_pressure;BME280_temperature;BME280_humidity;BME280_pressure;Samples;Min_cycle;Max_cycle;Signal;HPM_P1;HPM_P2
2022/02/21 00:02:06;;;;;;;3.67;2.08;;;;;;;6.73;68.89;95402.70;1700252;84;21079;-86
2022/02/21 00:04:31;;;;;;;6.90;3.55;;;;;;;6.76;68.62;95402.82;1700537;84;21039;-85
2022/02/21 00:06:57;;;;;;;4.78;2.45;;;;;;;6.76;68.45;95379.09;1700343;84;21049;-85
2022/02/21 00:09:23;;;;;;;3.33;1.82;;;;;;;6.81;67.60;95369.50;1700245;84;21119;-86
2022/02/21 00:11:49;;;;;;;7.15;3.22;;;;;;;6.85;67.83;95361.23;1700432;84;20990;-86
2022/02/21 00:14:15;;;;;;;4.03;1.98;;;;;;;6.87;67.26;95363.13;1700159;84;21127;-85
2022/02/21 00:16:41;;;;;;;3.67;1.67;;;;;;;6.90;67.08;95350.34;1700417;84;21509;-86
2022/02/21 00:19:06;;;;;;;10.68;4.75;;;;;;;6.93;67.03;95346.09;1700770;84;20979;-86
2022/02/21 00:21:32;;;;;;;6.92;3.45;;;;;;;6.92;66.85;95346.59;1668581;84;21067;-86
2022/02/21 00:23:58;;;;;;;7.65;3.92;;;;;;;6.94;66.80;95338.66;1700379;84;21118;-86
2022/02/21 00:26:23;;;;;;;6.47;3.58;;;;;;;6.94;67.12;95338.66;1700532;84;21030;-86
2022/02/21 00:28:49;;;;;;;4.92;2.58;;;;;;;6.95;66.64;95318.80;1700487;84;21047;-86
2022/02/21 00:31:15;;;;;;;8.00;4.10;;;;;;;6.98;66.33;95326.16;1700156;84;21098;-86
2022/02/21 00:33:41;;;;;;;6.45;3.72;;;;;;;7.01;65.97;95309.03;1700294;84;21019;-86
2022/02/21 00:36:06;;;;;;;5.05;3.08;;;;;;;7.03;66.43;95320.77;1700051;84;21386;-86
2022/02/21 00:38:33;;;;;;;7.12;3.85;;;;;;;7.04;66.31;95313.33;1700383;84;21046;-86
2022/02/21 00:40:58;;;;;;;3.00;1.27;;;;;;;7.04;66.15;95317.70;1700891;84;21126;-86
2022/02/21 00:43:24;;;;;;;9.65;5.97;;;;;;;7.05;65.69;95313.63;1700731;84;21341;-85
2022/02/21 00:45:50;;;;;;;6.17;3.65;;;;;;;7.07;66.03;95305.20;1700804;84;20978;-85
2022/02/21 00:48:17;;;;;;;7.35;4.05;;;;;;;7.09;65.98;95290.81;1700867;84;20994;-85
2022/02/21 00:50:42;;;;;;;8.08;3.52;;;;;;;6.92;65.77;95257.98;1700911;84;21015;-85
2022/02/21 00:53:08;;;;;;;7.90;4.17;;;;;;;7.12;65.19;95292.52;1700970;84;21002;-85
2022/02/21 00:55:34;;;;;;;4.78;2.85;;;;;;;7.14;65.21;95295.71;1700887;84;21054;-86
2022/02/21 00:58:01;;;;;;;8.23;4.42;;;;;;;7.16;65.39;95284.72;1700979;84;22037;-86
2022/02/21 01:00:27;;;;;;;8.78;4.58;;;;;;;7.18;65.03;95284.53;1700875;84;21460;-86
2022/02/21 01:02:53;;;;;;;11.28;5.60;;;;;;;7.19;64.98;95275.30;1701018;84;20993;-86
2022/02/21 01:05:19;;;;;;;5.58;3.08;;;;;;;7.21;64.49;95275.11;1700834;84;20987;-85
2022/02/21 01:07:45;;;;;;;4.70;2.72;;;;;;;7.23;64.38;95259.72;1700932;84;21389;-86
2022/02/21 01:10:11;;;;;;;12.93;6.20;;;;;;;7.26;64.11;95252.08;1700953;84;21003;-85
2022/02/21 01:12:36;;;;;;;4.65;2.67;;;;;;;7.28;64.07;95257.86;1700926;84;21395;-85
2022/02/21 01:15:05;;;;;;;6.70;3.70;;;;;;;7.25;63.74;95232.90;1700954;84;20939;-85
2022/02/21 01:17:30;;;;;;;4.72;3.02;;;;;;;7.31;63.82;95241.17;1700872;84;21006;-86
2022/02/21 01:19:57;;;;;;;3.05;1.62;;;;;;;7.29;63.51;95226.36;1700946;84;20971;-85
2022/02/21 01:22:23;;;;;;;4.25;2.20;;;;;;;7.29;63.83;95233.61;1700960;84;21098;-86
2022/02/21 01:24:49;;;;;;;2.52;1.85;;;;;;;7.32;63.47;95222.09;1681136;84;21019;-86
2022/02/21 01:27:15;;;;;;;4.90;2.85;;;;;;;7.32;62.99;95216.47;1700839;84;21001;-85
2022/02/21 01:29:42;;;;;;;5.58;2.87;;;;;;;7.36;63.05;95220.76;1701003;84;20983;-86
2022/02/21 01:32:08;;;;;;;5.15;2.30;;;;;;;7.36;63.28;95207.84;1700981;84;21042;-86
2022/02/21 01:34:34;;;;;;;4.55;2.08;;;;;;;7.37;62.98;95200.38;1700853;84;21026;-85
2022/02/21 01:37:00;;;;;;;8.03;4.15;;;;;;;7.35;63.08;95190.24;1688454;83;20963;-86
2022/02/21 01:39:25;;;;;;;4.55;2.47;;;;;;;7.37;62.83;95197.80;1700415;84;21106;-86
2022/02/21 01:41:51;;;;;;;3.77;2.08;;;;;;;7.38;62.76;95185.18;1700665;84;21028;-85
2022/02/21 01:44:17;;;;;;;6.58;3.58;;;;;;;7.39;63.34;95187.57;1700247;84;20967;-86
2022/02/21 01:46:43;;;;;;;7.47;4.35;;;;;;;7.39;63.28;95195.33;1700460;84;20967;-86
2022/02/21 01:49:12;;;;;;;2.50;1.70;;;;;;;7.38;63.32;95180.02;1700233;84;21451;-86
2022/02/21 01:51:38;;;;;;;9.33;4.85;;;;;;;7.36;63.35;95176.33;1700387;84;21405;-85
2022/02/21 01:54:07;;;;;;;8.60;3.80;;;;;;;7.38;63.19;95164.51;1700522;84;21082;-85
2022/02/21 01:56:34;;;;;;;10.45;5.95;;;;;;;7.37;63.33;95163.71;1700187;84;21090;-86
2022/02/21 01:59:00;;;;;;;9.08;4.60;;;;;;;7.39;63.50;95141.55;1700521;84;21345;-86
2022/02/21 02:01:26;;;;;;;11.12;5.03;;;;;;;7.38;63.27;95147.22;1700436;84;21410;-86
2022/02/21 02:03:51;;;;;;;8.05;3.90;;;;;;;7.37;64.17;95139.16;1700514;84;21048;-86
2022/02/21 02:06:17;;;;;;;6.75;3.12;;;;;;;7.33;65.08;95128.12;1700294;84;21082;-86
2022/02/21 02:08:43;;;;;;;6.42;3.12;;;;;;;7.30;64.78;95133.15;1700493;84;21121;-85
2022/02/21 02:11:09;;;;;;;4.40;2.45;;;;;;;7.30;64.93;95123.30;1700502;84;21003;-86
2022/02/21 02:13:35;;;;;;;8.90;4.50;;;;;;;7.29;64.73;95120.42;1668985;84;21038;-86
2022/02/21 02:16:00;;;;;;;3.50;2.17;;;;;;;7.30;64.51;95127.19;1700468;84;21062;-86
2022/02/21 02:18:26;;;;;;;3.72;1.62;;;;;;;7.29;64.63;95113.97;1700382;84;21035;-86
2022/02/21 02:20:53;;;;;;;8.68;5.05;;;;;;;7.29;64.53;95103.13;1699992;84;21122;-86
2022/02/21 02:23:19;;;;;;;8.08;4.35;;;;;;;7.29;64.69;95106.21;1700508;84;21485;-85
2022/02/21 02:25:45;;;;;;;3.80;2.20;;;;;;;7.27;64.82;95097.86;1700302;84;21026;-85
2022/02/21 02:28:10;;;;;;;7.03;3.62;;;;;;;7.27;64.86;95092.20;1700408;84;21067;-86
2022/02/21 02:30:36;;;;;;;8.53;4.78;;;;;;;7.27;65.26;95089.61;1668536;84;21452;-86
2022/02/21 02:33:02;;;;;;;4.85;2.55;;;;;;;7.24;65.72;95091.30;1700423;84;21058;-86
2022/02/21 02:35:28;;;;;;;7.50;3.95;;;;;;;7.22;66.41;95110.07;1700467;84;21041;-86
2022/02/21 02:37:54;;;;;;;7.58;4.00;;;;;;;7.16;67.45;95108.27;1700236;84;21083;-86
2022/02/21 02:40:20;;;;;;;4.90;2.87;;;;;;;7.06;67.83;95104.72;1689993;84;21004;-86
2022/02/21 02:42:46;;;;;;;6.95;3.75;;;;;;;6.99;68.98;95109.53;1689018;84;21103;-86
2022/02/21 02:45:13;;;;;;;9.83;5.30;;;;;;;6.91;69.08;95117.75;1688738;84;21008;-85
2022/02/21 02:47:39;;;;;;;6.40;4.50;;;;;;;6.83;69.58;95113.21;1688874;84;21426;-86
2022/02/21 02:50:06;;;;;;;8.55;5.03;;;;;;;6.78;69.59;95099.59;1688814;84;20999;-86
2022/02/21 02:52:32;;;;;;;2.85;1.80;;;;;;;6.76;69.78;95093.02;1688831;84;21047;-86
2022/02/21 02:54:57;;;;;;;6.15;3.17;;;;;;;6.74;69.47;95088.55;1688907;85;21063;-86
2022/02/21 02:57:23;;;;;;;3.25;2.05;;;;;;;6.74;69.20;95092.41;1688858;84;21067;-86
2022/02/21 02:59:49;;;;;;;4.75;2.77;;;;;;;6.76;69.51;95090.44;1688963;85;21397;-86
2022/02/21 03:02:15;;;;;;;7.67;4.45;;;;;;;6.75;68.92;95090.14;1689023;84;20971;-86
2022/02/21 03:04:40;;;;;;;10.13;5.33;;;;;;;6.76;68.78;95083.49;1688761;85;20955;-86
2022/02/21 03:07:06;;;;;;;11.03;5.87;;;;;;;6.79;68.84;95086.19;1676650;83;21291;-86
2022/02/21 03:09:32;;;;;;;10.53;5.42;;;;;;;6.83;68.91;95085.64;1688722;85;21086;-86
2022/02/21 03:11:58;;;;;;;2.75;1.77;;;;;;;6.83;69.20;95086.10;1688883;84;20987;-85
2022/02/21 03:14:23;;;;;;;21.75;11.25;;;;;;;6.81;69.51;95083.71;1688919;85;20995;-86
2022/02/21 03:16:49;;;;;;;8.60;4.37;;;;;;;6.78;69.99;95075.55;1688983;84;21014;-86
2022/02/21 03:19:15;;;;;;;10.30;5.45;;;;;;;6.74;70.81;95082.09;1689032;85;21032;-85
2022/02/21 03:21:41;;;;;;;10.25;5.85;;;;;;;6.68;71.36;95091.40;1689020;85;21043;-86
2022/02/21 03:24:07;;;;;;;3.95;2.42;;;;;;;6.62;71.44;95085.68;1688797;85;20995;-86
2022/02/21 03:26:32;;;;;;;5.25;3.10;;;;;;;6.57;72.30;95090.13;1689018;84;21063;-86
2022/02/21 03:28:58;;;;;;;8.33;4.45;;;;;;;6.52;72.39;95078.78;1688895;84;21058;-85
2022/02/21 03:31:24;;;;;;;6.78;3.50;;;;;;;6.46;73.09;95076.44;1689031;85;21333;-86
2022/02/21 03:33:49;;;;;;;5.25;3.08;;;;;;;6.39;72.96;95078.19;1689046;85;20971;-85
2022/02/21 03:36:15;;;;;;;6.03;3.58;;;;;;;6.35;73.02;95073.59;1688914;85;21062;-86
2022/02/21 03:38:42;;;;;;;2.08;1.45;;;;;;;6.32;74.10;95056.69;1689991;84;22120;-86
2022/02/21 03:41:08;;;;;;;4.37;2.50;;;;;;;6.29;74.83;95064.31;1700844;84;21010;-86
2022/02/21 03:43:34;;;;;;;4.75;2.60;;;;;;;6.23;75.07;95050.08;1701032;84;21060;-86
2022/02/21 03:46:00;;;;;;;4.80;2.45;;;;;;;6.19;75.02;95045.00;1700521;84;21409;-86
2022/02/21 03:48:27;;;;;;;5.22;3.10;;;;;;;6.14;75.09;95039.09;1701017;84;20963;-86
2022/02/21 03:50:53;;;;;;;7.72;3.80;;;;;;;6.13;75.13;95036.21;1700823;84;20970;-85
2022/02/21 03:53:19;;;;;;;5.78;3.42;;;;;;;6.12;75.49;95022.22;1700837;84;21006;-85
2022/02/21 03:55:45;;;;;;;2.05;1.50;;;;;;;6.08;75.71;94988.27;1700765;84;21054;-86
2022/02/21 03:58:11;;;;;;;8.30;4.40;;;;;;;6.05;75.49;94968.52;1700783;84;21038;-86
2022/02/21 04:00:37;;;;;;;3.52;2.35;;;;;;;6.03;75.92;94947.28;1700960;84;20986;-86
2022/02/21 04:03:03;;;;;;;1.87;1.47;;;;;;;5.98;75.88;94948.63;1700716;84;21034;-86
2022/02/21 04:05:29;;;;;;;2.75;2.00;;;;;;;5.98;75.88;94948.63;1700879;84;20971;-86
2022/02/21 04:07:54;;;;;;;2.45;1.95;;;;;;;5.98;75.20;94951.20;1685171;83;20978;-85
2022/02/21 04:10:20;;;;;;;14.20;6.15;;;;;;;5.99;75.20;94911.54;1694868;84;21046;-86
2022/02/21 04:12:46;;;;;;;25.43;8.75;;;;;;;5.99;74.86;94902.52;1681267;84;21325;-86
2022/02/21 04:15:12;;;;;;;17.52;7.28;;;;;;;6.02;74.67;94898.79;1700863;84;21608;-86
2022/02/21 04:17:49;;;;;;;17.27;5.40;;;;;;;6.07;74.35;94886.61;1700802;84;20963;-86
2022/02/21 04:20:18;;;;;;;17.70;7.30;;;;;;;6.11;74.23;94872.34;1700656;84;21021;-85
2022/02/21 04:22:44;;;;;;;6.78;3.10;;;;;;;6.17;73.68;94867.20;1700714;84;21041;-86
2022/02/21 04:25:11;;;;;;;14.20;6.35;;;;;;;6.27;73.35;94872.03;1701076;84;20983;-86
2022/02/21 04:27:49;;;;;;;4.55;2.00;;;;;;;6.31;73.29;94872.73;1701048;84;20970;-85
2022/02/21 04:30:17;;;;;;;9.63;3.77;;;;;;;6.36;72.55;94857.99;1700906;84;21404;-86
2022/02/21 04:32:43;;;;;;;4.85;2.22;;;;;;;6.44;72.36;94873.29;1681112;84;21726;-86
2022/02/21 04:35:09;;;;;;;9.45;3.90;;;;;;;6.55;71.32;94877.91;1701069;84;20962;-86
2022/02/21 04:37:35;;;;;;;16.40;7.47;;;;;;;6.65;70.86;94881.89;1701083;84;21065;-85
2022/02/21 04:40:03;;;;;;;14.95;7.08;;;;;;;6.72;71.00;94890.47;1679692;84;21070;-86
2022/02/21 04:42:29;;;;;;;8.23;3.98;;;;;;;6.75;70.51;94872.00;1698629;84;20972;-86
2022/02/21 04:44:55;;;;;;;7.83;4.22;;;;;;;6.79;70.61;94869.33;1698864;84;21324;-86
2022/02/21 04:47:21;;;;;;;7.25;3.65;;;;;;;6.85;70.07;94864.70;1698748;84;20998;-85
2022/02/21 04:49:46;;;;;;;11.75;5.42;;;;;;;6.90;69.82;94858.44;1698702;84;20968;-87
2022/02/21 04:52:12;;;;;;;5.60;2.95;;;;;;;6.97;69.09;94843.73;1698939;84;20986;-86
2022/02/21 04:54:38;;;;;;;9.75;5.50;;;;;;;7.01;68.84;94837.22;1698582;84;21385;-86
2022/02/21 04:57:04;;;;;;;7.62;3.58;;;;;;;7.04;68.91;94832.15;1698736;84;21002;-86
2022/02/21 04:59:30;;;;;;;12.15;5.35;;;;;;;7.06;67.51;94830.95;1698705;84;20955;-86
2022/02/21 05:01:59;;;;;;;15.43;6.70;;;;;;;7.13;68.00;94827.07;1698742;84;20995;-86
2022/02/21 05:04:24;;;;;;;16.62;7.83;;;;;;;7.16;67.85;94801.66;1698505;84;21399;-86
2022/02/21 05:06:50;;;;;;;13.55;7.12;;;;;;;7.22;66.83;94767.27;1693424;83;21384;-86
2022/02/21 05:09:16;;;;;;;13.35;5.60;;;;;;;7.29;66.94;94780.17;1682133;84;21089;-86
2022/02/21 05:11:41;;;;;;;8.38;4.33;;;;;;;7.34;66.84;94774.43;1698716;84;21002;-86
2022/02/21 05:14:07;;;;;;;7.47;3.85;;;;;;;7.37;65.83;94788.23;1698848;84;20990;-85
2022/02/21 05:16:33;;;;;;;10.35;5.30;;;;;;;7.42;65.23;94779.37;1698771;84;21049;-86
2022/02/21 05:19:02;;;;;;;8.15;4.33;;;;;;;7.49;65.86;94779.67;1698793;84;20986;-85
2022/02/21 05:21:26;;;;;;;9.95;4.97;;;;;;;7.27;65.81;94750.37;1679172;84;21019;-86
2022/02/21 05:23:52;;;;;;;17.67;8.58;;;;;;;7.52;65.02;94783.14;1698711;84;21023;-86
2022/02/21 05:26:18;;;;;;;10.53;5.00;;;;;;;7.57;65.28;94782.53;1678810;84;21061;-86
2022/02/21 05:28:44;;;;;;;17.48;8.30;;;;;;;7.58;65.72;94785.91;1698680;84;21353;-86
2022/02/21 05:31:10;;;;;;;17.27;11.57;;;;;;;7.57;65.12;94769.61;1698653;84;21070;-86
2022/02/21 05:33:36;;;;;;;36.70;12.93;;;;;;;7.59;65.52;94761.15;1698641;84;21069;-86
2022/02/21 05:36:01;;;;;;;43.87;16.37;;;;;;;7.58;65.38;94763.44;1698736;84;21429;-86
2022/02/21 05:38:27;;;;;;;34.05;11.25;;;;;;;7.58;65.78;94777.66;1678844;84;20971;-86
2022/02/21 05:40:53;;;;;;;26.27;10.53;;;;;;;7.61;65.95;94757.07;1674523;84;21095;-85
2022/02/21 05:43:19;;;;;;;28.60;10.88;;;;;;;7.61;65.86;94773.88;1669312;86;20981;-85
2022/02/21 05:45:46;;;;;;;29.05;10.18;;;;;;;7.58;66.31;94791.88;1669219;86;21087;-86
2022/02/21 05:48:12;;;;;;;24.67;8.55;;;;;;;7.57;66.62;94771.41;1669491;86;20977;-86
2022/02/21 05:50:37;;;;;;;15.53;6.10;;;;;;;7.51;67.30;94773.80;1669441;86;21043;-85
2022/02/21 05:53:04;;;;;;;46.00;16.77;;;;;;;7.44;67.61;94785.13;1669542;86;21408;-85
2022/02/21 05:55:29;;;;;;;54.48;18.20;;;;;;;7.36;68.97;94794.40;1669479;86;21035;-86
2022/02/21 05:57:58;;;;;;;37.95;11.38;;;;;;;7.26;70.06;94787.03;1657768;86;21028;-86
2022/02/21 06:00:24;;;;;;;38.42;12.35;;;;;;;7.15;71.08;94788.42;1669254;85;21067;-85
2022/02/21 06:02:50;;;;;;;36.70;13.10;;;;;;;7.05;71.51;94786.75;1669448;85;21375;-86
2022/02/21 06:05:16;;;;;;;17.37;7.30;;;;;;;6.95;72.48;94785.05;1669449;86;21004;-85
2022/02/21 06:07:42;;;;;;;21.23;7.85;;;;;;;6.83;73.51;94791.78;1669525;86;21393;-85
2022/02/21 06:10:08;;;;;;;16.57;7.28;;;;;;;6.70;73.82;94765.48;1669349;86;21174;-85
2022/02/21 06:12:34;;;;;;;31.00;11.05;;;;;;;6.62;74.18;94779.84;1669375;86;21024;-85
2022/02/21 06:14:59;;;;;;;16.42;6.35;;;;;;;6.56;75.42;94790.96;1669458;86;20984;-85
2022/02/21 06:17:25;;;;;;;30.75;11.18;;;;;;;6.50;74.76;94798.17;1669400;86;20996;-85
2022/02/21 06:19:51;;;;;;;28.40;9.30;;;;;;;6.45;74.81;94802.64;1669198;86;20993;-85
2022/02/21 06:22:17;;;;;;;21.95;6.40;;;;;;;6.38;76.06;94801.04;1669416;86;21446;-85
2022/02/21 06:24:45;;;;;;;16.05;6.05;;;;;;;6.30;77.34;94778.28;1669289;85;21015;-85
2022/02/21 06:27:10;;;;;;;23.27;10.58;;;;;;;6.25;76.67;94766.97;1669407;85;20965;-85
2022/02/21 06:29:36;;;;;;;22.87;10.28;;;;;;;6.23;77.00;94766.37;1657735;86;20999;-85
2022/02/21 06:32:02;;;;;;;27.73;11.83;;;;;;;6.19;76.85;94773.70;1669444;85;21003;-85
2022/02/21 06:34:28;;;;;;;14.58;5.78;;;;;;;6.16;77.84;94760.38;1657539;86;21052;-85
2022/02/21 06:36:54;;;;;;;10.98;4.60;;;;;;;6.13;78.00;94754.32;1669399;85;21828;-85
2022/02/21 06:39:20;;;;;;;13.05;5.25;;;;;;;6.11;78.21;94762.75;1670415;85;22332;-85
2022/02/21 06:41:49;;;;;;;28.65;11.35;;;;;;;6.03;78.93;94748.25;1669090;85;21035;-85
2022/02/21 06:44:14;;;;;;;16.93;6.50;;;;;;;6.00;79.57;94773.11;1688592;85;21107;-85
2022/02/21 06:46:42;;;;;;;14.78;6.50;;;;;;;5.95;79.33;94769.83;1688985;85;21462;-85
2022/02/21 06:49:10;;;;;;;19.80;11.33;;;;;;;5.94;78.68;94777.76;1688822;85;20970;-85
2022/02/21 06:51:36;;;;;;;8.20;3.67;;;;;;;5.94;78.99;94778.55;1688846;85;21043;-85
2022/02/21 06:54:06;;;;;;;29.95;9.98;;;;;;;5.93;80.04;94776.96;1688998;85;20991;-85
2022/02/21 06:56:33;;;;;;;26.60;8.93;;;;;;;5.92;78.86;94785.69;1688893;85;20980;-84
2022/02/21 06:58:58;;;;;;;20.43;7.80;;;;;;;5.93;78.57;94780.83;1688907;85;21042;-85
2022/02/21 07:01:24;;;;;;;22.17;8.78;;;;;;;5.94;78.90;94772.11;1677549;83;21365;-85
2022/02/21 07:03:50;;;;;;;17.30;7.55;;;;;;;5.96;78.72;94768.05;1688056;85;20959;-85
2022/02/21 07:06:16;;;;;;;19.92;8.43;;;;;;;5.99;78.68;94773.60;1688777;85;21039;-85
2022/02/21 07:08:42;;;;;;;11.43;5.35;;;;;;;6.00;79.17;94770.03;1689033;84;21011;-85
2022/02/21 07:11:08;;;;;;;17.77;7.62;;;;;;;6.04;79.10;94755.00;1688879;85;21050;-85
2022/02/21 07:13:35;;;;;;;11.40;5.03;;;;;;;6.08;78.76;94774.25;1688939;84;21010;-85
2022/02/21 07:16:01;;;;;;;17.05;6.80;;;;;;;6.12;79.20;94763.84;1688983;85;21010;-85
2022/02/21 07:18:27;;;;;;;25.52;8.28;;;;;;;6.17;78.31;94757.59;1689058;85;20959;-85
2022/02/21 07:20:54;;;;;;;18.87;7.87;;;;;;;6.18;78.71;94757.11;1688717;84;21050;-85
2022/02/21 07:23:19;;;;;;;12.20;5.60;;;;;;;6.19;78.87;94765.17;1689012;84;21063;-85
2022/02/21 07:25:45;;;;;;;12.18;5.08;;;;;;;6.21;78.79;94753.67;1688982;85;21015;-85
2022/02/21 07:28:12;;;;;;;19.40;7.20;;;;;;;6.26;78.38;94771.13;1688823;85;20967;-85
2022/02/21 07:30:38;;;;;;;12.07;5.12;;;;;;;6.28;77.93;94765.28;1689033;85;21047;-85
2022/02/21 07:33:03;;;;;;;10.93;4.15;;;;;;;6.29;78.20;94760.42;1688884;84;21054;-85
2022/02/21 07:35:29;;;;;;;18.17;6.90;;;;;;;6.27;78.09;94772.72;1689073;84;21126;-85
2022/02/21 07:37:55;;;;;;;8.55;2.85;;;;;;;6.29;78.03;94756.05;1688706;85;21030;-85
2022/02/21 07:40:21;;;;;;;7.08;3.58;;;;;;;6.29;78.15;94748.31;1693316;84;21113;-85
2022/02/21 07:42:50;;;;;;;5.15;2.05;;;;;;;6.30;78.40;94756.35;1700977;84;20999;-85
2022/02/21 07:45:19;;;;;;;4.85;2.17;;;;;;;6.29;78.03;94748.81;1700909;84;21014;-85
2022/02/21 07:47:47;;;;;;;14.50;6.42;;;;;;;6.27;77.95;94730.16;1701051;84;21002;-86
2022/02/21 07:50:14;;;;;;;27.15;7.95;;;;;;;6.28;77.87;94726.59;1700882;84;21014;-84
2022/02/21 07:52:39;;;;;;;7.92;2.60;;;;;;;6.27;77.72;94732.73;1700885;84;21559;-86
2022/02/21 07:55:06;;;;;;;12.93;4.25;;;;;;;6.25;77.85;94721.83;1700785;84;21051;-85
2022/02/21 07:57:32;;;;;;;1.57;1.20;;;;;;;6.21;77.80;94712.41;1701042;84;21623;-85
2022/02/21 07:59:58;;;;;;;6.35;2.58;;;;;;;6.14;78.63;94713.36;1700751;84;21002;-85
2022/02/21 08:02:26;;;;;;;2.10;1.17;;;;;;;6.10;78.02;94717.33;1700904;84;20963;-85
2022/02/21 08:04:53;;;;;;;1.92;1.65;;;;;;;6.06;78.52;94719.50;1700907;84;21034;-85
2022/02/21 08:07:19;;;;;;;3.10;1.47;;;;;;;6.08;77.57;94714.15;1700935;84;21050;-85
2022/02/21 08:09:44;;;;;;;3.17;1.80;;;;;;;6.09;77.54;94712.66;1700894;84;21247;-86
2022/02/21 08:12:11;;;;;;;6.12;2.83;;;;;;;6.10;77.31;94712.95;1700817;84;20990;-85
2022/02/21 08:14:37;;;;;;;6.17;2.83;;;;;;;6.09;77.26;94707.50;1700479;84;21046;-85
2022/02/21 08:17:04;;;;;;;10.63;4.80;;;;;;;6.12;77.04;94701.95;1700902;84;21002;-85
2022/02/21 08:19:29;;;;;;;2.98;1.95;;;;;;;6.16;76.69;94715.24;1700882;84;21051;-85
2022/02/21 08:21:55;;;;;;;1.82;1.37;;;;;;;6.17;76.88;94702.65;1700877;84;21336;-85
2022/02/21 08:24:21;;;;;;;10.63;3.60;;;;;;;6.20;76.54;94714.69;1700913;84;21078;-85
2022/02/21 08:26:47;;;;;;;2.25;1.35;;;;;;;6.22;76.19;94702.88;1700863;84;20963;-85
2022/02/21 08:29:13;;;;;;;3.35;2.15;;;;;;;6.27;75.35;94711.61;1700878;84;21006;-85
2022/02/21 08:31:38;;;;;;;2.60;1.70;;;;;;;6.30;75.62;94713.00;1699702;83;21030;-86
2022/02/21 08:34:04;;;;;;;5.42;2.80;;;;;;;6.31;75.84;94707.64;1691312;83;21014;-85
2022/02/21 08:36:30;;;;;;;2.15;1.35;;;;;;;6.35;75.49;94718.88;1700913;84;20983;-85
2022/02/21 08:38:55;;;;;;;2.05;1.30;;;;;;;6.37;75.21;94709.95;1700782;84;20998;-85
2022/02/21 08:41:21;;;;;;;1.65;1.10;;;;;;;6.40;74.95;94691.99;1700411;84;21043;-85
2022/02/21 08:43:48;;;;;;;1.15;1.02;;;;;;;6.43;75.00;94692.39;1700451;84;20984;-86
2022/02/21 08:46:14;;;;;;;5.65;3.02;;;;;;;6.46;74.31;94689.41;1668832;84;21023;-85
2022/02/21 08:48:40;;;;;;;4.42;2.47;;;;;;;6.46;74.62;94683.45;1700298;84;21062;-85
2022/02/21 08:51:06;;;;;;;1.92;1.30;;;;;;;6.46;74.71;94684.25;1700280;84;20975;-85
2022/02/21 08:53:31;;;;;;;6.50;3.27;;;;;;;6.50;74.30;94695.75;1700208;84;21410;-85
2022/02/21 08:55:58;;;;;;;1.98;1.07;;;;;;;6.55;74.19;94690.81;1700001;84;21042;-86
2022/02/21 08:58:23;;;;;;;1.20;0.93;;;;;;;6.60;73.84;94675.52;1700389;84;21011;-85
2022/02/21 09:00:49;;;;;;;3.87;2.30;;;;;;;6.63;73.69;94676.41;1700357;84;20929;-85
2022/02/21 09:03:15;;;;;;;2.85;1.70;;;;;;;6.69;73.58;94670.97;1700332;84;20995;-85
2022/02/21 09:05:41;;;;;;;2.02;1.10;;;;;;;6.74;72.66;94691.02;1691755;84;20976;-85
2022/02/21 09:08:06;;;;;;;1.70;1.02;;;;;;;6.78;73.15;94683.16;1700381;84;20928;-85
2022/02/21 09:10:32;;;;;;;3.60;1.87;;;;;;;6.79;72.55;94697.16;1700462;84;21019;-85
2022/02/21 09:12:59;;;;;;;2.17;1.30;;;;;;;6.79;72.51;94690.70;1700359;83;21015;-85
2022/02/21 09:15:25;;;;;;;2.52;1.30;;;;;;;6.79;72.82;94692.00;1646565;84;21457;-85
2022/02/21 09:17:52;;;;;;;2.15;1.20;;;;;;;6.80;72.46;94676.02;1700194;84;21031;-85
2022/02/21 09:20:18;;;;;;;1.50;1.10;;;;;;;6.85;72.64;94691.72;1700330;84;21043;-85
2022/02/21 09:22:44;;;;;;;4.90;2.40;;;;;;;6.88;72.39;94682.28;1692064;84;20995;-85
2022/02/21 09:25:09;;;;;;;3.72;2.92;;;;;;;6.91;72.22;94687.83;1700491;84;21418;-85
2022/02/21 09:27:35;;;;;;;3.17;2.65;;;;;;;6.93;72.33;94688.42;1700488;84;21031;-85
2022/02/21 09:30:04;;;;;;;4.95;3.80;;;;;;;6.95;71.86;94682.27;1700541;84;21010;-85
2022/02/21 09:32:30;;;;;;;3.50;3.17;;;;;;;6.99;72.11;94678.27;1696777;82;21028;-85
2022/02/21 09:34:56;;;;;;;2.00;1.35;;;;;;;7.00;71.86;94688.43;1683603;84;21003;-85
2022/02/21 09:37:25;;;;;;;1.65;1.30;;;;;;;6.99;71.74;94696.35;1699999;84;21465;-85
2022/02/21 09:39:51;;;;;;;1.32;1.22;;;;;;;6.96;71.56;94670.94;1700270;84;21007;-85
2022/02/21 09:42:17;;;;;;;1.85;1.20;;;;;;;6.96;71.50;94678.19;1700068;84;21051;-85
2022/02/21 09:44:44;;;;;;;1.40;1.10;;;;;;;6.98;71.56;94693.47;1700607;84;21030;-86
2022/02/21 09:47:09;;;;;;;2.80;2.17;;;;;;;6.98;71.12;94683.94;1700456;84;21406;-85
2022/02/21 09:49:35;;;;;;;2.30;1.80;;;;;;;6.78;71.41;94641.37;1700500;84;21135;-85
2022/02/21 09:52:01;;;;;;;1.70;1.40;;;;;;;6.96;71.64;94688.52;1700354;84;21082;-85
2022/02/21 09:54:27;;;;;;;7.92;4.33;;;;;;;6.93;71.31;94666.97;1700402;84;21070;-85
2022/02/21 09:56:55;;;;;;;3.50;2.80;;;;;;;6.90;71.55;94690.11;1700463;84;21086;-84
2022/02/21 09:59:20;;;;;;;3.70;2.17;;;;;;;6.91;71.54;94698.16;1700352;84;21043;-85
2022/02/21 10:01:46;;;;;;;6.20;4.65;;;;;;;6.92;71.38;94675.72;1700751;84;21036;-86
2022/02/21 10:04:13;;;;;;;4.65;2.80;;;;;;;6.93;71.82;94688.92;1700418;84;21733;-85
2022/02/21 10:06:39;;;;;;;4.70;2.95;;;;;;;6.91;71.43;94702.03;1668692;84;21019;-85
2022/02/21 10:09:10;;;;;;;6.10;3.17;;;;;;;6.94;71.37;94689.21;1700442;84;20945;-85
2022/02/21 10:11:45;;;;;;;4.60;2.62;;;;;;;6.97;71.49;94683.64;1700317;84;21083;-85
2022/02/21 10:14:16;;;;;;;3.55;2.55;;;;;;;7.01;71.44;94695.19;1668962;84;21031;-85
2022/02/21 10:16:57;;;;;;;5.12;2.67;;;;;;;7.05;71.35;94687.33;1700459;84;21027;-85
2022/02/21 10:19:30;;;;;;;6.40;4.37;;;;;;;7.06;71.01;94705.70;1699497;84;21054;-85
2022/02/21 10:22:11;;;;;;;1.90;1.60;;;;;;;7.09;70.72;94700.62;1700392;84;21011;-85
2022/02/21 10:24:44;;;;;;;7.33;4.62;;;;;;;7.08;71.08;94705.49;1700363;84;20971;-85
2022/02/21 10:27:21;;;;;;;10.93;5.40;;;;;;;7.01;71.50;94696.97;1700336;84;21398;-85
2022/02/21 10:29:55;;;;;;;16.00;7.62;;;;;;;7.07;71.48;94718.91;1700488;84;21415;-85
2022/02/21 10:32:25;;;;;;;6.67;4.55;;;;;;;6.93;72.00;94708.28;1698061;83;21047;-85
2022/02/21 10:34:52;;;;;;;7.72;4.78;;;;;;;7.03;72.62;94722.89;1684692;84;20988;-85
2022/02/21 10:37:26;;;;;;;7.50;4.70;;;;;;;6.97;72.65;94735.28;1700286;83;21051;-85
2022/02/21 10:40:10;;;;;;;5.10;3.20;;;;;;;6.91;73.50;94742.55;1700526;84;21350;-85
2022/02/21 10:42:37;;;;;;;6.03;3.72;;;;;;;6.88;74.12;94758.44;1700974;83;21081;-86
2022/02/21 10:45:15;;;;;;;3.42;2.75;;;;;;;6.85;74.20;94765.30;1700974;84;21034;-85
2022/02/21 10:48:09;;;;;;;3.83;2.70;;;;;;;6.80;74.26;94760.70;1700846;84;21137;-85
2022/02/21 10:50:59;;;;;;;9.25;5.90;;;;;;;6.76;74.30;94771.63;1700577;84;21003;-85
2022/02/21 10:53:36;;;;;;;10.45;6.05;;;;;;;6.68;74.47;94778.28;1700894;84;22304;-84
2022/02/21 10:56:02;;;;;;;5.37;3.83;;;;;;;6.58;75.05;94763.97;1700943;84;21056;-85
2022/02/21 10:58:28;;;;;;;13.22;7.92;;;;;;;6.53;75.01;94788.28;1700929;84;21038;-85
2022/02/21 11:00:55;;;;;;;6.97;4.17;;;;;;;6.49;74.86;94785.77;1700960;84;21117;-85
2022/02/21 11:03:26;;;;;;;3.55;2.60;;;;;;;6.44;74.69;94807.50;1700906;84;21001;-85
2022/02/21 11:05:53;;;;;;;4.67;2.87;;;;;;;6.41;74.42;94811.76;1700977;84;21525;-86
2022/02/21 11:08:20;;;;;;;3.72;2.60;;;;;;;6.38;74.15;94820.39;1701232;84;20986;-86
2022/02/21 11:10:53;;;;;;;5.12;2.20;;;;;;;6.33;73.95;94828.19;1700868;83;21459;-85
2022/02/21 11:13:18;;;;;;;6.10;3.62;;;;;;;6.31;73.52;94820.34;1700994;84;20994;-85
2022/02/21 11:15:44;;;;;;;5.22;2.87;;;;;;;6.32;73.21;94812.91;1700838;84;20987;-85
2022/02/21 11:18:12;;;;;;;4.15;2.45;;;;;;;6.36;73.85;94809.47;1700953;84;21278;-86
2022/02/21 11:20:37;;;;;;;3.25;2.20;;;;;;;6.40;74.21;94800.34;1680873;84;21070;-85
2022/02/21 11:23:03;;;;;;;13.45;8.70;;;;;;;6.40;74.22;94786.16;1680984;84;21452;-85
2022/02/21 11:25:54;;;;;;;17.17;11.85;;;;;;;6.39;74.57;94786.66;1700892;84;21005;-85
2022/02/21 11:28:39;;;;;;;16.67;10.38;;;;;;;6.35;74.43;94798.85;1700907;84;21022;-85
2022/02/21 11:31:06;;;;;;;8.10;4.70;;;;;;;6.35;74.66;94814.33;1700857;84;21058;-85
2022/02/21 11:33:58;;;;;;;26.93;14.68;;;;;;;6.32;74.38;94822.73;1700793;84;21831;-85
2022/02/21 11:36:25;;;;;;;37.15;18.62;;;;;;;6.32;74.11;94825.80;1700771;84;21066;-85
2022/02/21 11:38:51;;;;;;;25.68;11.40;;;;;;;6.34;74.02;94821.24;1700982;84;21042;-85